createdAt,value
2024-02-29T00:01:18.096Z,19.4
2024-02-29T00:04:20.076Z,20.2
2024-02-29T00:07:22.051Z,18.7
2024-02-29T00:10:24.408Z,21.1
2024-02-29T00:13:26.056Z,17.6
2024-02-29T00:16:27.913Z,17.4
2024-02-29T00:19:29.922Z,18.2
2024-02-29T00:22:31.844Z,18.8
2024-02-29T00:25:33.881Z,19.4
2024-02-29T00:28:35.768Z,24.5
2024-02-29T00:31:37.733Z,20.9
2024-02-29T00:34:39.770Z,23.8
2024-02-29T00:37:41.671Z,24
2024-02-29T00:40:43.687Z,21.9
2024-02-29T00:43:45.719Z,22
2024-02-29T00:46:47.674Z,18.5
2024-02-29T00:49:49.632Z,18.8
2024-02-29T00:52:51.563Z,19.9
2024-02-29T00:55:53.504Z,21.8
2024-02-29T00:58:55.513Z,20.1
2024-02-29T01:01:57.594Z,19.3
2024-02-29T01:04:59.429Z,19.1
2024-02-29T01:08:01.419Z,19.9
2024-02-29T01:11:03.404Z,19.2
2024-02-29T01:14:05.291Z,17.7
2024-02-29T01:17:07.229Z,16
2024-02-29T01:20:09.239Z,19.3
2024-02-29T01:23:11.185Z,17.8
2024-02-29T01:26:13.106Z,18.8
2024-02-29T01:32:19.054Z,17.2
2024-02-29T01:35:18.974Z,20.4
2024-02-29T01:38:20.912Z,20.5
2024-02-29T01:41:22.921Z,18.3
2024-02-29T01:44:24.880Z,20
2024-02-29T01:47:26.810Z,18.5
2024-02-29T01:50:28.753Z,20.3
2024-02-29T01:53:30.753Z,21.7
2024-02-29T01:56:32.723Z,19.1
2024-02-29T01:59:34.759Z,19.1
2024-02-29T02:02:36.583Z,17.8
2024-02-29T02:05:38.524Z,18.7
2024-02-29T02:11:42.430Z,16.4
2024-02-29T02:14:44.481Z,14.7
2024-02-29T02:17:46.394Z,16.8
2024-02-29T02:20:48.380Z,14
2024-02-29T02:23:50.267Z,14.8
2024-02-29T02:26:52.270Z,15.5
2024-02-29T02:29:54.584Z,16.2
2024-02-29T02:32:56.153Z,16.3
2024-02-29T02:35:58.084Z,18.2
2024-02-29T02:39:00.099Z,15.2
2024-02-29T02:42:02.017Z,16.7
2024-02-29T02:45:04.022Z,16
2024-02-29T02:48:05.982Z,16.4
2024-02-29T02:51:07.960Z,17.2
2024-02-29T02:54:09.805Z,13.9
2024-02-29T02:57:11.774Z,16.4
2024-02-29T03:00:13.759Z,15.7
2024-02-29T03:03:15.696Z,19
2024-02-29T03:06:17.640Z,17.8
2024-02-29T03:09:19.703Z,18.1
2024-02-29T03:12:21.682Z,18.4
2024-02-29T03:15:23.656Z,20.2
2024-02-29T03:18:25.616Z,16.5
2024-02-29T03:21:27.555Z,19.8
2024-02-29T03:24:29.492Z,19
2024-02-29T03:27:31.474Z,16.2
2024-02-29T03:30:33.387Z,16.9
2024-02-29T03:33:35.363Z,19.2
2024-02-29T03:36:37.322Z,18.4
2024-02-29T03:39:39.331Z,16.6
2024-02-29T03:42:41.339Z,17.1
2024-02-29T03:45:43.293Z,19.6
2024-02-29T03:48:45.169Z,19.4
2024-02-29T03:51:47.203Z,17.5
2024-02-29T03:54:49.110Z,16.2
2024-02-29T03:57:51.144Z,17.7
2024-02-29T04:00:53.098Z,19.5
2024-02-29T04:03:54.960Z,18.9
2024-02-29T04:06:56.919Z,18.7
2024-02-29T04:09:58.886Z,18.4
2024-02-29T04:13:00.894Z,20.1
2024-02-29T04:16:02.852Z,18.7
2024-02-29T04:19:04.765Z,19.1
2024-02-29T04:22:06.804Z,21.7
2024-02-29T04:25:08.754Z,19.6
2024-02-29T04:28:10.733Z,22.5
2024-02-29T04:31:12.652Z,19
2024-02-29T04:34:14.671Z,17.6
2024-02-29T04:37:16.625Z,18.9
2024-02-29T04:40:18.511Z,17.5
2024-02-29T04:43:20.475Z,20
2024-02-29T04:46:22.432Z,18.5
2024-02-29T04:49:24.513Z,16.9
2024-02-29T04:52:26.323Z,18.8
2024-02-29T04:55:28.267Z,18
2024-02-29T04:58:30.212Z,20.5
2024-02-29T05:01:32.236Z,18
2024-02-29T05:04:34.066Z,21.5
2024-02-29T05:07:36.079Z,18
2024-02-29T05:10:38.029Z,20
2024-02-29T05:13:39.997Z,17.5
2024-02-29T05:16:41.956Z,18.2
2024-02-29T05:19:43.825Z,19.3
2024-02-29T05:22:45.805Z,17.4
2024-02-29T05:25:47.807Z,18
2024-02-29T05:28:49.902Z,20
2024-02-29T05:31:51.697Z,20.1
2024-02-29T05:34:53.600Z,18
2024-02-29T05:37:57.735Z,22.4
2024-02-29T05:40:57.526Z,18.8
2024-02-29T05:43:59.494Z,17.4
2024-02-29T05:47:01.433Z,18.8
2024-02-29T05:50:03.403Z,17.8
2024-02-29T05:53:05.331Z,17.9
2024-02-29T05:56:07.260Z,19.8
2024-02-29T06:02:11.296Z,16
2024-02-29T06:05:13.263Z,19.7
2024-02-29T06:08:16.969Z,18.2
2024-02-29T06:11:17.229Z,16.8
2024-02-29T06:14:19.185Z,18.2
2024-02-29T06:17:21.141Z,19.9
2024-02-29T06:20:23.139Z,17.8
2024-02-29T06:23:25.110Z,18.7
2024-02-29T06:26:27.102Z,19.1
2024-02-29T06:29:29.025Z,17
2024-02-29T06:32:30.949Z,19.7
2024-02-29T06:35:32.900Z,19.4
2024-02-29T06:41:36.757Z,19.2
2024-02-29T06:44:38.739Z,20.1
2024-02-29T06:47:40.698Z,21.3
2024-02-29T06:50:42.769Z,18.2
2024-02-29T06:53:44.645Z,22.4
2024-02-29T06:56:46.592Z,20.3
2024-02-29T06:59:49.983Z,20.9
2024-02-29T07:02:50.445Z,21.7
2024-02-29T07:05:52.465Z,21.9
2024-02-29T07:11:56.334Z,20.5
2024-02-29T07:14:58.275Z,22.7
2024-02-29T07:18:00.355Z,19.4
2024-02-29T07:21:02.286Z,23.5
2024-02-29T07:24:04.211Z,21.7
2024-02-29T07:27:06.169Z,22.8
2024-02-29T07:30:08.243Z,24.8
2024-02-29T07:33:10.205Z,22
2024-02-29T07:36:12.169Z,20.1
2024-02-29T07:39:14.124Z,21.9
2024-02-29T07:42:16.019Z,22.9
2024-02-29T07:45:20.318Z,22.9
2024-02-29T07:48:19.926Z,24.2
2024-02-29T07:51:21.915Z,26.6
2024-02-29T07:54:23.867Z,19.9
2024-02-29T07:57:25.834Z,23.7
2024-02-29T08:00:27.730Z,24.6
2024-02-29T08:03:29.658Z,25.6
2024-02-29T08:06:31.655Z,25
2024-02-29T08:09:33.574Z,29.7
2024-02-29T08:12:35.599Z,24.3
2024-02-29T08:15:37.586Z,24.6
2024-02-29T08:18:39.553Z,22.3
2024-02-29T08:21:41.683Z,22.4
2024-02-29T08:24:43.449Z,27.5
2024-02-29T08:27:45.440Z,28.2
2024-02-29T08:30:47.484Z,26.1
2024-02-29T08:33:49.346Z,27.8
2024-02-29T08:36:51.355Z,32.7
2024-02-29T08:39:53.270Z,29
2024-02-29T08:42:55.285Z,24.3
2024-02-29T08:45:57.152Z,30.8
2024-02-29T08:49:01.275Z,26.9
2024-02-29T08:52:01.139Z,23.9
2024-02-29T08:55:03.017Z,25.6
2024-02-29T08:58:04.974Z,27.2
2024-02-29T09:01:06.914Z,25.6
2024-02-29T09:04:08.866Z,26.9
2024-02-29T09:07:10.859Z,27
2024-02-29T09:10:12.794Z,21.8
2024-02-29T09:13:19.834Z,23.7
2024-02-29T09:16:16.748Z,26
2024-02-29T09:19:18.671Z,29.6
2024-02-29T09:22:20.663Z,36.7
2024-02-29T09:25:22.591Z,31.3
2024-02-29T09:28:24.508Z,27.8
2024-02-29T09:31:26.543Z,36.7
2024-02-29T09:34:28.496Z,33.3
2024-02-29T09:37:30.429Z,34.3
2024-02-29T09:40:38.374Z,30.6
2024-02-29T09:43:37.185Z,29.7
2024-02-29T09:46:39.107Z,31.9
2024-02-29T09:49:42.173Z,38.6
2024-02-29T09:52:43.028Z,33.8
2024-02-29T09:55:44.972Z,35.5
2024-02-29T09:58:46.915Z,37.4
2024-02-29T10:01:49.213Z,48.9
2024-02-29T10:04:50.932Z,46.2
2024-02-29T10:07:52.836Z,43.6
2024-02-29T10:10:55.285Z,43.3
2024-02-29T10:13:56.831Z,44.1
2024-02-29T10:16:58.699Z,36
2024-02-29T10:20:00.654Z,35
2024-02-29T10:23:02.639Z,43
2024-02-29T10:26:04.533Z,43.7
2024-02-29T10:32:08.489Z,41
2024-02-29T10:35:10.516Z,39.8
2024-02-29T10:38:12.513Z,40.9
2024-02-29T10:41:14.426Z,37.6
2024-02-29T10:44:16.433Z,39.1
2024-02-29T10:47:18.433Z,41.2
2024-02-29T10:50:20.456Z,34.7
2024-02-29T10:53:22.416Z,35.3
2024-02-29T10:56:24.426Z,37.2
2024-02-29T10:59:26.346Z,39.1
2024-02-29T11:02:28.204Z,35.2
2024-02-29T11:05:30.290Z,34.4
2024-02-29T11:11:34.189Z,35.3
2024-02-29T11:14:36.122Z,28.1
2024-02-29T11:17:38.174Z,28.1
2024-02-29T11:20:40.042Z,28.9
2024-02-29T11:23:42.104Z,29.8
2024-02-29T11:26:44.104Z,36.1
2024-02-29T11:29:46.097Z,32.7
2024-02-29T11:32:48.039Z,28.4
2024-02-29T11:35:50.004Z,31
2024-02-29T11:41:53.826Z,32.8
2024-02-29T11:44:55.865Z,30.2
2024-02-29T11:47:57.782Z,30
2024-02-29T11:50:59.695Z,28.3
2024-02-29T11:54:01.698Z,35.1
2024-02-29T11:57:03.651Z,32.2
2024-02-29T12:00:05.587Z,25.7
2024-02-29T12:03:07.580Z,23.5
2024-02-29T12:06:09.533Z,24.5
2024-02-29T12:09:11.560Z,31.4
2024-02-29T12:12:13.513Z,38.2
2024-02-29T12:15:15.571Z,34.4
2024-02-29T12:18:17.477Z,36.1
2024-02-29T12:21:19.494Z,31.9
2024-02-29T12:24:21.490Z,36.2
2024-02-29T12:27:23.440Z,26.4
2024-02-29T12:30:25.494Z,32.3
2024-02-29T12:33:29.067Z,38.8
2024-02-29T12:36:29.455Z,26.8
2024-02-29T12:39:31.408Z,29.8
2024-02-29T12:42:33.346Z,31.7
2024-02-29T12:45:35.409Z,29.8
2024-02-29T12:48:37.434Z,32.4
2024-02-29T12:51:39.362Z,31.9
2024-02-29T12:54:41.377Z,32.3
2024-02-29T12:57:43.404Z,25.6
2024-02-29T13:00:45.521Z,20.7
2024-02-29T13:03:47.289Z,33.5
2024-02-29T13:06:49.364Z,26
2024-02-29T13:09:51.214Z,25.5
2024-02-29T13:12:54.666Z,27.4
2024-02-29T13:15:56.302Z,28.5
2024-02-29T13:18:57.169Z,25.3
2024-02-29T13:21:59.097Z,26.9
2024-02-29T13:25:01.058Z,25.6
2024-02-29T13:28:02.978Z,31.8
2024-02-29T13:31:04.925Z,22.6
2024-02-29T13:34:17.087Z,25.3
2024-02-29T13:37:09.115Z,25.6
2024-02-29T13:40:11.002Z,25.8
2024-02-29T13:43:12.867Z,22
2024-02-29T13:46:14.848Z,21.3
2024-02-29T13:49:19.877Z,23
2024-02-29T13:52:19.245Z,22.1
2024-02-29T13:55:20.669Z,28.5
2024-02-29T13:58:22.688Z,20.7
2024-02-29T14:01:24.633Z,20
2024-02-29T14:04:27.085Z,23.3
2024-02-29T14:07:28.533Z,18.9
2024-02-29T14:10:30.536Z,20.7
2024-02-29T14:13:32.460Z,23.5
2024-02-29T14:16:34.349Z,24.5
2024-02-29T14:19:36.303Z,19.2
2024-02-29T14:22:38.323Z,17.8
2024-02-29T14:25:40.378Z,21.3
2024-02-29T14:28:42.286Z,25.5
2024-02-29T14:31:44.192Z,25.4
2024-02-29T14:34:46.174Z,18.1
2024-02-29T14:37:48.279Z,22.4
2024-02-29T14:40:50.126Z,20
2024-02-29T14:43:52.120Z,20.5
2024-02-29T14:46:54.044Z,22.4
2024-02-29T14:49:55.996Z,20.9
2024-02-29T14:52:57.937Z,26.7
2024-02-29T14:56:00.017Z,19
2024-02-29T15:02:03.947Z,24.5
2024-02-29T15:05:05.774Z,21.6
2024-02-29T15:08:07.767Z,22.8
2024-02-29T15:11:09.804Z,23.1
2024-02-29T15:14:11.692Z,26.6
2024-02-29T15:17:13.608Z,24.9
2024-02-29T15:20:15.690Z,19.4
2024-02-29T15:23:17.697Z,23.8
2024-02-29T15:26:20.005Z,17.7
2024-02-29T15:32:26.288Z,23.2
2024-02-29T15:35:26.003Z,20.4
2024-02-29T15:41:29.802Z,23
2024-02-29T15:44:31.750Z,21
2024-02-29T15:47:33.796Z,20.7
2024-02-29T15:50:35.835Z,30.8
2024-02-29T15:53:37.744Z,24.6
2024-02-29T15:56:39.840Z,31.1
2024-02-29T15:59:41.808Z,27.8
2024-02-29T16:02:43.794Z,21.6
2024-02-29T16:05:45.802Z,26
2024-02-29T16:11:49.793Z,28.5
2024-02-29T16:14:51.694Z,30.1
2024-02-29T16:17:56.749Z,26.5
2024-02-29T16:21:07.873Z,23.2
2024-02-29T16:23:59.801Z,21.5
2024-02-29T16:27:02.306Z,25.3
2024-02-29T16:30:04.380Z,21.2
2024-02-29T16:33:06.281Z,20.7
2024-02-29T16:36:08.360Z,27
2024-02-29T16:39:10.439Z,20.6
2024-02-29T16:42:12.331Z,25.1
2024-02-29T16:45:14.318Z,21.9
2024-02-29T16:48:16.367Z,23.8
2024-02-29T16:51:18.340Z,23.1
2024-02-29T16:54:20.291Z,26.6
2024-02-29T16:57:22.380Z,29.7
2024-02-29T17:00:27.422Z,25.9
2024-02-29T17:03:29.414Z,28
2024-02-29T17:06:31.452Z,25.3
2024-02-29T17:09:35.218Z,31.9
2024-02-29T17:12:35.398Z,21.3
2024-02-29T17:15:38.301Z,21.9
2024-02-29T17:18:39.498Z,32.8
2024-02-29T17:21:42.713Z,26.1
2024-02-29T17:24:43.382Z,32.2
2024-02-29T17:27:45.412Z,26.5
2024-02-29T17:30:47.324Z,25.9
2024-02-29T17:33:49.438Z,24.2
2024-02-29T17:36:51.464Z,25
2024-02-29T17:39:53.391Z,28.5
2024-02-29T17:42:55.756Z,30
2024-02-29T17:45:57.394Z,23
2024-02-29T17:48:59.406Z,23.2
2024-02-29T17:52:01.380Z,30.6
2024-02-29T17:55:03.406Z,30.2
2024-02-29T17:58:05.299Z,26.4
2024-02-29T18:01:07.232Z,24.2
2024-02-29T18:04:09.159Z,29.9
2024-02-29T18:07:11.226Z,25.6
2024-02-29T18:10:13.230Z,28.5
2024-02-29T18:13:15.147Z,23.7
2024-02-29T18:16:17.099Z,23.5
2024-02-29T18:19:19.092Z,25.9
2024-02-29T18:22:21.078Z,29.8
2024-02-29T18:25:23.011Z,26.3
2024-02-29T18:28:24.973Z,26.9
2024-02-29T18:31:27.110Z,29.9
2024-02-29T18:34:28.954Z,33.2
2024-02-29T18:37:30.864Z,26.4
2024-02-29T18:40:32.995Z,26.5
2024-02-29T18:43:34.767Z,23.7
2024-02-29T18:46:36.833Z,25.1
2024-02-29T18:49:38.760Z,28
2024-02-29T18:52:40.905Z,26.4
2024-02-29T18:55:42.725Z,27
2024-02-29T18:58:44.634Z,29.8
2024-02-29T19:01:46.708Z,25.2
2024-02-29T19:04:48.546Z,28.5
2024-02-29T19:07:50.545Z,25.9
2024-02-29T19:10:52.623Z,29.9
2024-02-29T19:13:54.407Z,27.2
2024-02-29T19:16:56.407Z,26.3
2024-02-29T19:19:58.340Z,26.7
2024-02-29T19:23:00.341Z,25.1
2024-02-29T19:26:02.310Z,28.3
2024-02-29T19:32:06.183Z,28.6
2024-02-29T19:35:08.133Z,25.6
2024-02-29T19:38:10.073Z,27
2024-02-29T19:41:12.032Z,23
2024-02-29T19:44:14.005Z,23.9
2024-02-29T19:47:15.993Z,29.6
2024-02-29T19:50:17.912Z,35.1
2024-02-29T19:53:19.918Z,32.3
2024-02-29T19:56:21.869Z,26.3
2024-02-29T20:02:26.129Z,28.6
2024-02-29T20:05:27.769Z,29.4
2024-02-29T20:11:31.761Z,36.1
2024-02-29T20:14:33.644Z,31.8
2024-02-29T20:17:35.663Z,34.3
2024-02-29T20:20:37.591Z,29.9
2024-02-29T20:23:39.484Z,30
2024-02-29T20:26:41.440Z,34.9
2024-02-29T20:29:43.392Z,33.2
2024-02-29T20:32:45.493Z,34.4
2024-02-29T20:35:47.311Z,29.1
2024-02-29T20:41:51.309Z,26
2024-02-29T20:44:53.172Z,29.7
2024-02-29T20:47:55.194Z,26.4
2024-02-29T20:50:57.113Z,26.2
2024-02-29T20:53:59.064Z,27.4
2024-02-29T20:57:01.007Z,28.9
2024-02-29T21:00:03.001Z,32.7
2024-02-29T21:03:04.985Z,33.9
2024-02-29T21:06:06.935Z,29.8
2024-02-29T21:09:08.864Z,34.1
2024-02-29T21:12:10.852Z,25.8
2024-02-29T21:15:12.814Z,29.3
2024-02-29T21:18:14.825Z,29.5
2024-02-29T21:21:18.930Z,30.6
2024-02-29T21:24:18.635Z,27.3
2024-02-29T21:27:20.677Z,30.9
2024-02-29T21:30:22.769Z,28.6
2024-02-29T21:33:24.908Z,26.1
2024-02-29T21:36:26.745Z,27.2
2024-02-29T21:39:32.457Z,29.6
2024-02-29T21:42:30.681Z,31.5
2024-02-29T21:45:32.641Z,30.7
2024-02-29T21:48:34.600Z,25.4
2024-02-29T21:51:36.584Z,31.4
2024-02-29T21:54:38.457Z,27.6
2024-02-29T21:57:40.409Z,26.5
2024-02-29T22:00:42.372Z,29.9
2024-02-29T22:03:44.456Z,30.3
2024-02-29T22:06:46.391Z,23.7
2024-02-29T22:09:48.319Z,28.4
2024-02-29T22:12:50.266Z,32.8
2024-02-29T22:15:52.232Z,28.7
2024-02-29T22:18:54.170Z,25.6
2024-02-29T22:21:56.474Z,32.8
2024-02-29T22:24:58.075Z,26.3
2024-02-29T22:27:59.969Z,29
2024-02-29T22:31:02.017Z,26.6
2024-02-29T22:34:03.993Z,25.9
2024-02-29T22:37:05.874Z,30.5
2024-02-29T22:40:07.931Z,29.9
2024-02-29T22:43:09.803Z,32.6
2024-02-29T22:46:11.793Z,29.4
2024-02-29T22:49:13.676Z,31.5
2024-02-29T22:52:15.677Z,31.5
2024-02-29T22:55:17.674Z,29
2024-02-29T22:58:19.635Z,26.7
2024-02-29T23:01:21.518Z,29.8
2024-02-29T23:04:23.547Z,29.3
2024-02-29T23:07:25.551Z,33.9
2024-02-29T23:10:27.452Z,32
2024-02-29T23:13:29.482Z,28.2
2024-02-29T23:16:31.467Z,30.4
2024-02-29T23:19:33.374Z,30.3
2024-02-29T23:22:35.312Z,26.8
2024-02-29T23:25:37.274Z,29.4
2024-02-29T23:28:39.194Z,29
2024-02-29T23:31:41.245Z,35.4
2024-02-29T23:34:43.150Z,31.9
2024-02-29T23:37:45.163Z,30.3
2024-02-29T23:40:47.046Z,31.5
2024-02-29T23:43:49.145Z,28.9
2024-02-29T23:46:51.013Z,30.2
2024-02-29T23:49:52.896Z,30
2024-02-29T23:52:54.887Z,28.4
2024-02-29T23:55:56.840Z,26.5
